createdAt,value
2022-12-11T00:01:59.438Z,32.83
2022-12-11T00:04:25.814Z,33.03
2022-12-11T00:06:52.138Z,32.60
2022-12-11T00:09:18.467Z,34.23
2022-12-11T00:11:44.826Z,33.57
2022-12-11T00:14:11.148Z,37.27
2022-12-11T00:16:37.539Z,32.23
2022-12-11T00:19:04.204Z,31.77
2022-12-11T00:21:30.530Z,35.83
2022-12-11T00:23:56.844Z,38.00
2022-12-11T00:26:23.176Z,35.57
2022-12-11T00:28:49.500Z,37.10
2022-12-11T00:31:15.855Z,33.93
2022-12-11T00:33:42.207Z,38.67
2022-12-11T00:36:08.553Z,35.77
2022-12-11T00:38:34.878Z,34.60
2022-12-11T00:41:01.404Z,38.50
2022-12-11T00:43:27.719Z,37.57
2022-12-11T00:45:54.066Z,36.87
2022-12-11T00:48:20.426Z,30.20
2022-12-11T00:50:46.730Z,33.33
2022-12-11T00:53:13.069Z,39.90
2022-12-11T00:55:39.400Z,31.87
2022-12-11T00:58:05.731Z,36.13
2022-12-11T01:00:32.033Z,40.03
2022-12-11T01:02:58.455Z,33.17
2022-12-11T01:05:24.832Z,37.70
2022-12-11T01:07:51.191Z,35.70
2022-12-11T01:10:26.793Z,38.23
2022-12-11T01:12:53.217Z,31.27
2022-12-11T01:15:19.610Z,31.10
2022-12-11T01:17:45.941Z,32.17
2022-12-11T01:20:12.255Z,33.20
2022-12-11T01:22:38.579Z,30.10
2022-12-11T01:25:05.197Z,30.83
2022-12-11T01:27:31.519Z,31.53
2022-12-11T01:29:57.831Z,30.80
2022-12-11T01:32:24.150Z,32.10
2022-12-11T01:34:50.497Z,30.87
2022-12-11T01:37:16.846Z,33.93
2022-12-11T01:39:43.182Z,31.17
2022-12-11T01:42:10.533Z,32.63
2022-12-11T01:44:37.443Z,31.83
2022-12-11T01:47:03.758Z,33.77
2022-12-11T01:49:30.059Z,32.03
2022-12-11T01:51:56.373Z,31.97
2022-12-11T01:54:22.713Z,30.83
2022-12-11T01:56:49.022Z,31.70
2022-12-11T01:59:15.372Z,31.63
2022-12-11T02:01:42.520Z,32.13
2022-12-11T02:04:08.911Z,31.33
2022-12-11T02:06:35.223Z,33.37
2022-12-11T02:09:01.535Z,31.80
2022-12-11T02:11:27.844Z,31.90
2022-12-11T02:13:54.163Z,29.80
2022-12-11T02:16:20.585Z,29.27
2022-12-11T02:18:46.990Z,30.67
2022-12-11T02:21:13.314Z,28.80
2022-12-11T02:23:39.708Z,28.40
2022-12-11T02:26:06.023Z,30.57
2022-12-11T02:28:32.337Z,30.77
2022-12-11T02:30:58.688Z,26.93
2022-12-11T02:33:25.018Z,31.33
2022-12-11T02:35:51.356Z,31.50
2022-12-11T02:38:17.902Z,30.90
2022-12-11T02:40:44.229Z,34.03
2022-12-11T02:43:10.536Z,25.63
2022-12-11T02:45:36.964Z,31.07
2022-12-11T02:48:03.359Z,31.07
2022-12-11T02:50:29.682Z,29.40
2022-12-11T02:52:56.015Z,29.83
2022-12-11T02:55:22.329Z,25.40
2022-12-11T02:57:48.671Z,27.27
2022-12-11T03:00:16.745Z,27.03
2022-12-11T03:02:43.212Z,27.70
2022-12-11T03:05:09.780Z,28.63
2022-12-11T03:07:36.302Z,26.17
2022-12-11T03:10:02.616Z,27.90
2022-12-11T03:12:29.203Z,27.17
2022-12-11T03:14:55.515Z,24.40
2022-12-11T03:17:21.828Z,25.57
2022-12-11T03:19:48.148Z,24.73
2022-12-11T03:22:14.457Z,26.97
2022-12-11T03:24:40.782Z,25.87
2022-12-11T03:27:11.154Z,26.13
2022-12-11T03:29:37.703Z,24.77
2022-12-11T03:32:04.009Z,22.83
2022-12-11T03:34:30.340Z,24.73
2022-12-11T03:36:56.700Z,22.73
2022-12-11T03:39:23.045Z,26.83
2022-12-11T03:41:49.375Z,27.40
2022-12-11T03:44:15.678Z,23.07
2022-12-11T03:46:42.013Z,26.60
2022-12-11T03:49:08.336Z,25.47
2022-12-11T03:51:34.675Z,27.40
2022-12-11T03:54:00.991Z,27.93
2022-12-11T03:56:27.631Z,23.33
2022-12-11T03:58:54.283Z,25.37
2022-12-11T04:01:20.653Z,24.10
2022-12-11T04:03:47.038Z,27.90
2022-12-11T04:06:13.414Z,27.10
2022-12-11T04:08:39.729Z,25.80
2022-12-11T04:11:24.998Z,26.90
2022-12-11T04:14:11.315Z,28.13
2022-12-11T04:16:37.760Z,26.47
2022-12-11T04:19:23.032Z,26.43
2022-12-11T04:22:07.859Z,25.30
2022-12-11T04:24:34.167Z,23.97
2022-12-11T04:27:00.499Z,23.63
2022-12-11T04:29:26.822Z,28.30
2022-12-11T04:31:53.163Z,27.70
2022-12-11T04:34:19.502Z,30.67
2022-12-11T04:36:45.837Z,25.63
2022-12-11T04:39:12.162Z,26.40
2022-12-11T04:41:39.152Z,23.80
2022-12-11T04:44:05.456Z,26.83
2022-12-11T04:46:31.882Z,23.70
2022-12-11T04:49:00.278Z,25.30
2022-12-11T04:51:26.619Z,28.00
2022-12-11T04:53:52.927Z,22.50
2022-12-11T04:56:19.271Z,25.90
2022-12-11T04:58:45.623Z,24.10
2022-12-11T05:01:12.060Z,25.73
2022-12-11T05:03:38.467Z,25.87
2022-12-11T05:06:04.784Z,24.70
2022-12-11T05:08:31.105Z,23.70
2022-12-11T05:10:57.739Z,17.67
2022-12-11T05:13:24.052Z,18.77
2022-12-11T05:15:50.418Z,18.83
2022-12-11T05:18:16.929Z,21.47
2022-12-11T05:20:43.235Z,20.20
2022-12-11T05:23:09.573Z,24.57
2022-12-11T05:25:35.883Z,26.73
2022-12-11T05:28:02.191Z,26.10
2022-12-11T05:30:28.507Z,25.47
2022-12-11T05:32:54.942Z,30.40
2022-12-11T05:35:21.267Z,31.00
2022-12-11T05:37:47.578Z,29.67
2022-12-11T05:40:13.928Z,32.77
2022-12-11T05:42:40.264Z,32.87
2022-12-11T05:45:06.610Z,29.60
2022-12-11T05:47:32.953Z,30.07
2022-12-11T05:49:59.249Z,29.53
2022-12-11T05:52:25.562Z,29.07
2022-12-11T05:54:51.915Z,26.13
2022-12-11T05:57:18.250Z,29.20
2022-12-11T05:59:45.358Z,28.67
2022-12-11T06:02:11.776Z,28.70
2022-12-11T06:04:38.190Z,27.33
2022-12-11T06:07:04.502Z,22.20
2022-12-11T06:09:30.841Z,21.93
2022-12-11T06:11:57.158Z,22.97
2022-12-11T06:14:23.470Z,21.80
2022-12-11T06:16:50.525Z,24.33
2022-12-11T06:19:18.517Z,23.10
2022-12-11T06:21:51.494Z,22.87
2022-12-11T06:24:17.888Z,21.57
2022-12-11T06:26:44.214Z,21.50
2022-12-11T06:29:12.879Z,21.40
2022-12-11T06:31:39.758Z,20.70
2022-12-11T06:34:06.201Z,20.73
2022-12-11T06:36:32.537Z,19.80
2022-12-11T06:38:59.163Z,19.67
2022-12-11T06:41:25.931Z,21.70
2022-12-11T06:43:52.521Z,21.93
2022-12-11T06:46:18.921Z,20.27
2022-12-11T06:48:45.410Z,23.00
2022-12-11T06:51:12.472Z,22.07
2022-12-11T06:53:38.836Z,19.57
2022-12-11T06:56:05.206Z,19.77
2022-12-11T06:58:31.570Z,20.23
2022-12-11T07:00:57.934Z,17.47
2022-12-11T07:03:24.303Z,23.40
2022-12-11T07:05:50.611Z,18.27
2022-12-11T07:08:17.058Z,21.77
2022-12-11T07:10:43.469Z,18.90
2022-12-11T07:13:09.912Z,21.87
2022-12-11T07:15:40.226Z,19.03
2022-12-11T07:18:06.860Z,18.47
2022-12-11T07:20:33.189Z,19.07
2022-12-11T07:22:59.540Z,18.63
2022-12-11T07:25:25.845Z,21.70
2022-12-11T07:27:52.163Z,19.33
2022-12-11T07:30:18.494Z,22.13
2022-12-11T07:32:45.146Z,17.83
2022-12-11T07:35:11.764Z,18.80
2022-12-11T07:37:38.329Z,19.83
2022-12-11T07:40:04.655Z,17.40
2022-12-11T07:42:31.002Z,19.93
2022-12-11T07:44:57.328Z,19.63
2022-12-11T07:47:23.739Z,17.27
2022-12-11T07:49:50.080Z,17.70
2022-12-11T07:52:16.435Z,17.10
2022-12-11T07:54:42.753Z,18.93
2022-12-11T07:57:14.217Z,20.13
2022-12-11T07:59:41.929Z,18.73
2022-12-11T08:02:08.393Z,21.60
2022-12-11T08:04:34.797Z,19.83
2022-12-11T08:07:01.153Z,22.10
2022-12-11T08:09:27.541Z,16.63
2022-12-11T08:11:53.917Z,19.63
2022-12-11T08:14:20.286Z,18.50
2022-12-11T08:16:46.678Z,17.70
2022-12-11T08:19:13.057Z,17.67
2022-12-11T08:21:40.193Z,19.17
2022-12-11T08:24:06.588Z,19.00
2022-12-11T08:26:33.142Z,17.63
2022-12-11T08:28:59.522Z,20.50
2022-12-11T08:31:25.905Z,18.27
2022-12-11T08:33:52.359Z,19.30
2022-12-11T08:36:18.755Z,18.77
2022-12-11T08:38:45.121Z,19.97
2022-12-11T08:41:11.429Z,19.23
2022-12-11T08:43:37.931Z,19.93
2022-12-11T08:46:04.270Z,19.00
2022-12-11T08:48:30.594Z,19.37
2022-12-11T08:50:56.931Z,15.33
2022-12-11T08:53:23.242Z,19.90
2022-12-11T08:55:49.550Z,16.33
2022-12-11T08:58:15.863Z,16.93
2022-12-11T09:00:42.246Z,16.40
2022-12-11T09:03:12.781Z,17.43
2022-12-11T09:05:40.187Z,18.17
2022-12-11T09:08:07.275Z,16.47
2022-12-11T09:10:33.626Z,16.87
2022-12-11T09:12:59.934Z,20.47
2022-12-11T09:15:26.292Z,20.13
2022-12-11T09:17:52.617Z,20.27
2022-12-11T09:20:18.938Z,19.50
2022-12-11T09:22:45.327Z,17.87
2022-12-11T09:25:14.908Z,19.27
2022-12-11T09:27:41.279Z,18.60
2022-12-11T09:30:07.604Z,16.83
2022-12-11T09:32:33.926Z,17.37
2022-12-11T09:35:00.227Z,18.17
2022-12-11T09:37:26.579Z,19.40
2022-12-11T09:39:52.898Z,19.40
2022-12-11T09:42:19.536Z,16.10
2022-12-11T09:44:46.009Z,15.80
2022-12-11T09:47:12.864Z,16.10
2022-12-11T09:49:39.399Z,16.90
2022-12-11T09:52:05.736Z,17.83
2022-12-11T09:54:32.537Z,20.03
2022-12-11T09:56:59.087Z,18.30
2022-12-11T09:59:25.458Z,20.50
2022-12-11T10:01:51.838Z,17.00
2022-12-11T10:04:18.180Z,20.40
2022-12-11T10:06:45.084Z,16.83
2022-12-11T10:09:11.397Z,17.40
2022-12-11T10:11:37.803Z,18.33
2022-12-11T10:14:04.131Z,18.50
2022-12-11T10:16:30.473Z,17.20
2022-12-11T10:18:56.900Z,18.87
2022-12-11T10:21:23.495Z,19.77
2022-12-11T10:23:49.842Z,18.37
2022-12-11T10:26:16.181Z,18.13
2022-12-11T10:28:42.489Z,19.90
2022-12-11T10:31:08.963Z,18.87
2022-12-11T10:33:35.376Z,17.17
2022-12-11T10:36:01.717Z,17.87
2022-12-11T10:38:28.044Z,19.17
2022-12-11T10:40:54.496Z,17.40
2022-12-11T10:43:20.875Z,14.80
2022-12-11T10:45:47.186Z,14.77
2022-12-11T10:48:13.501Z,15.97
2022-12-11T10:50:39.831Z,15.00
2022-12-11T10:53:06.157Z,15.93
2022-12-11T10:55:32.532Z,18.13
2022-12-11T10:57:58.884Z,15.43
2022-12-11T11:00:25.215Z,17.40
2022-12-11T11:02:51.585Z,17.67
2022-12-11T11:05:18.036Z,18.33
2022-12-11T11:07:44.424Z,17.70
2022-12-11T11:10:10.857Z,16.57
2022-12-11T11:12:37.447Z,15.07
2022-12-11T11:15:03.802Z,18.20
2022-12-11T11:17:34.603Z,14.73
2022-12-11T11:20:01.677Z,16.17
2022-12-11T11:22:28.031Z,16.03
2022-12-11T11:24:54.349Z,15.93
2022-12-11T11:27:20.654Z,14.90
2022-12-11T11:29:52.997Z,16.93
2022-12-11T11:32:19.651Z,14.00
2022-12-11T11:34:45.964Z,16.30
2022-12-11T11:37:12.313Z,14.97
2022-12-11T11:39:38.657Z,16.30
2022-12-11T11:42:04.963Z,14.80
2022-12-11T11:44:31.295Z,16.37
2022-12-11T11:46:57.731Z,13.93
2022-12-11T11:49:24.167Z,15.40
2022-12-11T11:51:50.494Z,17.53
2022-12-11T11:54:16.836Z,17.53
2022-12-11T11:56:43.160Z,15.67
2022-12-11T11:59:09.523Z,18.13
2022-12-11T12:01:35.856Z,18.57
2022-12-11T12:04:02.181Z,16.23
2022-12-11T12:06:28.779Z,16.33
2022-12-11T12:08:55.097Z,16.70
2022-12-11T12:11:21.514Z,19.13
2022-12-11T12:13:50.143Z,17.40
2022-12-11T12:16:50.520Z,18.97
2022-12-11T12:19:03.205Z,19.00
2022-12-11T12:21:29.547Z,18.03
2022-12-11T12:23:56.161Z,15.83
2022-12-11T12:26:22.533Z,19.57
2022-12-11T12:28:51.883Z,17.77
2022-12-11T12:31:18.344Z,16.27
2022-12-11T12:33:44.736Z,17.53
2022-12-11T12:36:11.045Z,17.30
2022-12-11T12:38:37.367Z,19.93
2022-12-11T12:41:03.805Z,18.07
2022-12-11T12:43:30.114Z,17.13
2022-12-11T12:45:56.568Z,17.90
2022-12-11T12:48:22.965Z,16.87
2022-12-11T12:50:49.287Z,19.43
2022-12-11T12:53:15.626Z,18.30
2022-12-11T12:55:41.931Z,19.30
2022-12-11T12:58:08.267Z,18.83
2022-12-11T13:00:34.901Z,16.10
2022-12-11T13:03:01.382Z,15.33
2022-12-11T13:05:27.709Z,16.00
2022-12-11T13:07:54.686Z,17.23
2022-12-11T13:10:21.130Z,18.20
2022-12-11T13:12:47.518Z,17.63
2022-12-11T13:15:13.951Z,15.47
2022-12-11T13:17:40.426Z,19.73
2022-12-11T13:20:06.846Z,16.67
2022-12-11T13:22:33.242Z,17.80
2022-12-11T13:25:01.718Z,16.23
2022-12-11T13:27:28.212Z,16.53
2022-12-11T13:29:54.535Z,16.77
2022-12-11T13:32:20.876Z,18.37
2022-12-11T13:34:47.189Z,17.47
2022-12-11T13:37:13.534Z,16.53
2022-12-11T13:39:39.843Z,18.47
2022-12-11T13:42:06.242Z,14.07
2022-12-11T13:44:33.038Z,16.93
2022-12-11T13:46:59.494Z,16.60
2022-12-11T13:49:25.893Z,16.87
2022-12-11T13:51:52.376Z,16.60
2022-12-11T13:54:18.677Z,17.03
2022-12-11T13:56:44.974Z,16.63
2022-12-11T13:59:11.285Z,14.67
2022-12-11T14:01:37.618Z,17.37
2022-12-11T14:04:03.999Z,17.77
2022-12-11T14:06:30.341Z,15.23
2022-12-11T14:08:56.657Z,15.83
2022-12-11T14:11:23.343Z,18.90
2022-12-11T14:13:49.649Z,16.93
2022-12-11T14:16:16.034Z,16.73
2022-12-11T14:18:42.355Z,22.27
2022-12-11T14:21:08.666Z,22.30
2022-12-11T14:23:34.978Z,18.43
2022-12-11T14:26:01.273Z,19.63
2022-12-11T14:28:27.884Z,18.93
2022-12-11T14:30:54.415Z,20.70
2022-12-11T14:33:20.809Z,20.07
2022-12-11T14:35:47.268Z,21.03
2022-12-11T14:38:13.722Z,22.60
2022-12-11T14:40:40.075Z,21.40
2022-12-11T14:43:06.566Z,22.83
2022-12-11T14:45:32.930Z,20.70
2022-12-11T14:47:59.330Z,20.90
2022-12-11T14:50:25.729Z,22.53
2022-12-11T14:52:52.115Z,21.90
2022-12-11T14:55:18.479Z,22.30
2022-12-11T14:57:44.788Z,23.03
2022-12-11T15:00:11.426Z,23.87
2022-12-11T15:02:38.110Z,20.47
2022-12-11T15:05:04.469Z,21.03
2022-12-11T15:07:30.909Z,22.97
2022-12-11T15:09:57.261Z,20.93
2022-12-11T15:12:23.841Z,18.57
2022-12-11T15:14:50.290Z,19.70
2022-12-11T15:17:16.655Z,16.27
2022-12-11T15:19:43.050Z,16.07
2022-12-11T15:22:09.365Z,18.00
2022-12-11T15:24:35.665Z,17.10
2022-12-11T15:27:01.992Z,17.90
2022-12-11T15:29:28.344Z,19.37
2022-12-11T15:31:54.673Z,19.90
2022-12-11T15:34:20.997Z,21.73
2022-12-11T15:36:47.386Z,23.10
2022-12-11T15:39:13.703Z,18.97
2022-12-11T15:41:40.022Z,21.73
2022-12-11T15:44:06.350Z,20.63
2022-12-11T15:46:32.743Z,25.60
2022-12-11T15:48:59.323Z,19.77
2022-12-11T15:51:27.583Z,21.33
2022-12-11T15:53:53.949Z,20.80
2022-12-11T15:56:20.313Z,24.30
2022-12-11T15:58:46.625Z,21.80
2022-12-11T16:01:12.952Z,21.67
2022-12-11T16:03:39.291Z,24.70
2022-12-11T16:06:05.611Z,21.83
2022-12-11T16:08:32.109Z,22.97
2022-12-11T16:10:58.531Z,22.17
2022-12-11T16:13:24.889Z,21.63
2022-12-11T16:15:51.290Z,24.40
2022-12-11T16:18:17.639Z,23.43
2022-12-11T16:20:44.049Z,23.33
2022-12-11T16:23:10.365Z,24.50
2022-12-11T16:25:36.668Z,24.43
2022-12-11T16:28:03.123Z,25.30
2022-12-11T16:30:29.546Z,24.73
2022-12-11T16:32:55.850Z,23.43
2022-12-11T16:35:22.222Z,23.67
2022-12-11T16:37:48.541Z,27.43
2022-12-11T16:40:14.870Z,24.07
2022-12-11T16:42:41.196Z,25.47
2022-12-11T16:45:08.522Z,22.47
2022-12-11T16:47:35.059Z,21.67
2022-12-11T16:50:01.499Z,18.47
2022-12-11T16:52:27.829Z,24.27
2022-12-11T16:54:54.660Z,20.57
2022-12-11T16:57:21.056Z,23.17
2022-12-11T16:59:47.372Z,21.97
2022-12-11T17:02:13.847Z,21.97
2022-12-11T17:04:40.267Z,21.93
2022-12-11T17:07:06.606Z,23.43
2022-12-11T17:09:32.954Z,20.63
2022-12-11T17:11:59.291Z,26.07
2022-12-11T17:14:25.617Z,26.20
2022-12-11T17:16:51.958Z,22.10
2022-12-11T17:19:18.292Z,21.80
2022-12-11T17:21:51.187Z,23.73
2022-12-11T17:24:18.041Z,26.27
2022-12-11T17:26:44.407Z,21.30
2022-12-11T17:29:10.745Z,22.53
2022-12-11T17:31:37.089Z,24.67
2022-12-11T17:34:03.651Z,21.13
2022-12-11T17:36:29.972Z,20.70
2022-12-11T17:38:56.287Z,23.23
2022-12-11T17:41:22.661Z,20.23
2022-12-11T17:43:48.964Z,22.60
2022-12-11T17:46:19.288Z,22.50
2022-12-11T17:48:45.622Z,25.30
2022-12-11T17:51:12.247Z,20.10
2022-12-11T17:53:38.630Z,19.53
2022-12-11T17:56:04.963Z,21.27
2022-12-11T17:58:31.356Z,22.63
2022-12-11T18:00:58.233Z,20.43
2022-12-11T18:03:24.609Z,21.70
2022-12-11T18:05:51.017Z,21.17
2022-12-11T18:08:17.383Z,22.60
2022-12-11T18:10:43.730Z,24.27
2022-12-11T18:13:10.134Z,21.47
2022-12-11T18:15:36.493Z,23.33
2022-12-11T18:18:02.810Z,22.93
2022-12-11T18:20:29.145Z,22.10
2022-12-11T18:22:55.453Z,22.80
2022-12-11T18:25:21.781Z,19.47
2022-12-11T18:27:48.223Z,18.30
2022-12-11T18:30:14.658Z,20.57
2022-12-11T18:32:41.004Z,22.67
2022-12-11T18:35:07.327Z,22.37
2022-12-11T18:37:33.633Z,26.83
2022-12-11T18:39:59.945Z,25.00
2022-12-11T18:42:33.957Z,24.20
2022-12-11T18:45:00.357Z,23.67
2022-12-11T18:47:26.719Z,23.77
2022-12-11T18:49:53.036Z,19.50
2022-12-11T18:52:19.353Z,24.13
2022-12-11T18:54:45.732Z,23.03
2022-12-11T18:57:12.054Z,21.80
2022-12-11T18:59:38.425Z,22.07
2022-12-11T19:02:04.772Z,23.87
2022-12-11T19:04:31.302Z,24.13
2022-12-11T19:06:57.635Z,22.40
2022-12-11T19:09:24.238Z,23.10
2022-12-11T19:11:50.555Z,25.47
2022-12-11T19:14:16.901Z,21.67
2022-12-11T19:16:44.097Z,20.93
2022-12-11T19:19:10.449Z,24.27
2022-12-11T19:21:37.746Z,24.30
2022-12-11T19:24:04.069Z,24.47
2022-12-11T19:26:30.720Z,23.83
2022-12-11T19:29:00.181Z,22.97
2022-12-11T19:31:26.938Z,23.10
2022-12-11T19:33:53.286Z,26.00
2022-12-11T19:36:19.615Z,26.50
2022-12-11T19:38:45.999Z,24.30
2022-12-11T19:41:12.314Z,24.90
2022-12-11T19:43:38.645Z,24.97
2022-12-11T19:46:05.059Z,25.30
2022-12-11T19:48:31.437Z,26.90
2022-12-11T19:50:57.847Z,26.43
2022-12-11T19:53:24.247Z,24.17
2022-12-11T19:55:50.975Z,27.27
2022-12-11T19:58:17.349Z,25.30
2022-12-11T20:00:43.685Z,23.80
2022-12-11T20:03:10.063Z,26.13
2022-12-11T20:05:37.414Z,22.60
2022-12-11T20:08:35.193Z,22.40
2022-12-11T20:10:50.043Z,23.73
2022-12-11T20:13:16.478Z,22.73
2022-12-11T20:15:42.808Z,22.60
2022-12-11T20:18:12.745Z,23.67
2022-12-11T20:20:41.754Z,24.20
2022-12-11T20:23:08.597Z,25.23
2022-12-11T20:25:34.911Z,25.77
2022-12-11T20:28:01.245Z,25.67
2022-12-11T20:30:27.570Z,26.23
2022-12-11T20:32:53.877Z,23.00
2022-12-11T20:35:20.206Z,25.77
2022-12-11T20:37:46.531Z,26.13
2022-12-11T20:40:13.254Z,24.10
2022-12-11T20:42:39.567Z,25.93
2022-12-11T20:45:05.883Z,24.53
2022-12-11T20:47:32.225Z,23.87
2022-12-11T20:49:58.613Z,26.20
2022-12-11T20:52:24.937Z,25.03
2022-12-11T20:54:51.303Z,25.17
2022-12-11T20:57:17.660Z,26.33
2022-12-11T20:59:45.273Z,25.03
2022-12-11T21:02:11.639Z,27.53
2022-12-11T21:04:39.848Z,26.83
2022-12-11T21:07:06.154Z,28.40
2022-12-11T21:09:32.582Z,31.07
2022-12-11T21:12:00.813Z,27.43
2022-12-11T21:14:27.157Z,26.27
2022-12-11T21:16:53.580Z,31.07
2022-12-11T21:19:22.212Z,28.23
2022-12-11T21:21:48.726Z,31.67
2022-12-11T21:24:15.110Z,26.33
2022-12-11T21:26:41.422Z,29.10
2022-12-11T21:29:07.745Z,29.23
2022-12-11T21:31:34.082Z,26.93
2022-12-11T21:34:00.495Z,26.43
2022-12-11T21:36:26.820Z,28.37
2022-12-11T21:38:53.390Z,25.63
2022-12-11T21:41:19.721Z,28.70
2022-12-11T21:44:40.995Z,30.33
2022-12-11T22:01:02.807Z,32.20
2022-12-11T22:03:29.175Z,29.07
2022-12-11T22:05:55.538Z,26.90
2022-12-11T22:08:21.901Z,27.77
2022-12-11T22:10:48.311Z,30.33
2022-12-11T22:13:14.662Z,25.93
2022-12-11T22:15:41.010Z,28.40
2022-12-11T22:18:07.332Z,28.47
2022-12-11T22:20:33.661Z,30.57
2022-12-11T22:23:00.054Z,29.13
2022-12-11T22:25:26.365Z,31.93
2022-12-11T22:27:52.693Z,30.93
2022-12-11T22:30:19.012Z,29.47
2022-12-11T22:32:45.410Z,27.13
2022-12-11T22:35:12.061Z,27.50
2022-12-11T22:37:38.667Z,32.20
2022-12-11T22:40:05.198Z,29.83
2022-12-11T22:42:31.983Z,31.67
2022-12-11T22:44:58.352Z,28.37
2022-12-11T22:47:24.663Z,29.57
2022-12-11T22:49:50.981Z,31.67
2022-12-11T22:52:17.289Z,29.77
2022-12-11T22:54:43.598Z,30.37
2022-12-11T22:57:09.972Z,33.97
2022-12-11T22:59:36.342Z,29.93
2022-12-11T23:02:02.689Z,33.63
2022-12-11T23:04:29.043Z,30.83
2022-12-11T23:06:55.357Z,34.60
2022-12-11T23:09:21.693Z,30.97
2022-12-11T23:11:48.005Z,30.63
2022-12-11T23:14:14.360Z,31.00
2022-12-11T23:16:40.745Z,33.00
2022-12-11T23:19:07.131Z,32.43
2022-12-11T23:21:33.483Z,28.90
2022-12-11T23:23:59.938Z,32.83
2022-12-11T23:26:27.347Z,32.20
2022-12-11T23:28:53.818Z,32.93
2022-12-11T23:31:20.165Z,33.53
2022-12-11T23:33:46.492Z,31.07
2022-12-11T23:36:12.807Z,33.73
2022-12-11T23:38:39.118Z,30.77
2022-12-11T23:41:05.458Z,30.93
2022-12-11T23:43:31.789Z,32.93
2022-12-11T23:45:58.142Z,33.50
2022-12-11T23:48:24.529Z,33.43
2022-12-11T23:50:50.864Z,31.33
2022-12-11T23:53:17.207Z,31.33
2022-12-11T23:55:43.527Z,32.30
2022-12-11T23:58:10.934Z,32.73
